This is the latest recevied weather packets stored in our database for station/object K5BOU. If no packets are shown the sender has not sent any weather packets the latest 10 day(s).
| Time | Temp. | Humidity | Pressure | Rain* | Wind** | Luminosity | Snow |
|---|---|---|---|---|---|---|---|
| 1777662876 | 17.22° C | 99% | 1006.7 hPa | 1.27 mm | - | 38 W/m² | - |
| 1777662573 | 16.67° C | 99% | 1006.9 hPa | 13.21 mm | - | 23 W/m² | - |
| 1777662269 | 16.67° C | 99% | 1007 hPa | 21.08 mm | - | 23 W/m² | - |
| 1777661963 | 16.67° C | 99% | 1007.1 hPa | 9.65 mm | - | 29 W/m² | - |
| 1777661660 | 16.67° C | 99% | 1007.5 hPa | 4.83 mm | - | 16 W/m² | - |
| 1777661356 | 16.67° C | 99% | 1007.4 hPa | 1.78 mm | - | 10 W/m² | - |
| 1777661052 | 16.67° C | 99% | 1006.6 hPa | 0 mm | - | 10 W/m² | - |
| 1777660747 | 16.67° C | 99% | 1006.3 hPa | 1.27 mm | - | 11 W/m² | - |
| 1777660445 | 16.67° C | 99% | 1006 hPa | 3.05 mm | - | 12 W/m² | - |
| 1777660141 | 16.67° C | 99% | 1005.7 hPa | 4.83 mm | - | 44 W/m² | - |
| 1777659838 | 17.22° C | 99% | 1006 hPa | 45.47 mm | - | 72 W/m² | - |
| 1777659535 | 17.22° C | 99% | 1007.1 hPa | 66.55 mm | - | 69 W/m² | - |
| 1777659232 | 17.22° C | 99% | 1007.5 hPa | 24.64 mm | - | 43 W/m² | - |
| 1777658929 | 17.22° C | 99% | 1008.7 hPa | 6.1 mm | - | 10 W/m² | - |
| 1777658625 | 17.22° C | 99% | 1007.3 hPa | 3.05 mm | - | 5 W/m² | - |
| 1777658323 | 17.22° C | 99% | 1006.2 hPa | 4.83 mm | - | 22 W/m² | - |
| 1777658019 | 17.22° C | 99% | 1006.2 hPa | 16.76 mm | - | 42 W/m² | - |
| 1777657716 | 17.22° C | 99% | 1006.6 hPa | 33.53 mm | - | 32 W/m² | - |
| 1777657413 | 17.22° C | 99% | 1007.5 hPa | 27.69 mm | - | 27 W/m² | - |
| 1777657111 | 17.22° C | 99% | 1008.1 hPa | 11.94 mm | - | 21 W/m² | - |
| 1777656809 | 17.22° C | 99% | 1008.4 hPa | 6.1 mm | - | 3 W/m² | - |
| 1777656504 | 17.22° C | 99% | 1007.9 hPa | 8.89 mm | - | 7 W/m² | - |
| 1777656199 | 17.22° C | 99% | 1007.7 hPa | 10.16 mm | - | 13 W/m² | - |
| 1777655895 | 17.22° C | 99% | 1007.9 hPa | 7.87 mm | - | 22 W/m² | - |
| 1777655600 | 17.22° C | 99% | 1008.2 hPa | 3.56 mm | - | 15 W/m² | - |
* Rain latest hour (hover to see other rain measurements)
** Current wind speed in m/s (hover to see current wind gust speed)